createdAt,value
2023-01-21T00:02:02.085Z,13.57
2023-01-21T00:04:30.508Z,13.40
2023-01-21T00:06:58.806Z,13.43
2023-01-21T00:09:28.484Z,13.90
2023-01-21T00:11:56.868Z,14.33
2023-01-21T00:14:25.353Z,14.03
2023-01-21T00:16:53.667Z,13.00
2023-01-21T00:19:22.099Z,14.20
2023-01-21T00:21:50.419Z,13.80
2023-01-21T00:24:18.934Z,12.67
2023-01-21T00:26:48.686Z,13.13
2023-01-21T00:29:17.547Z,13.43
2023-01-21T00:31:45.922Z,13.63
2023-01-21T00:34:14.630Z,13.40
2023-01-21T00:36:42.973Z,13.00
2023-01-21T00:39:11.356Z,13.60
2023-01-21T00:41:39.793Z,13.90
2023-01-21T00:44:09.678Z,12.63
2023-01-21T00:46:38.023Z,13.10
2023-01-21T00:49:06.486Z,12.40
2023-01-21T00:51:34.858Z,13.07
2023-01-21T00:54:03.257Z,12.50
2023-01-21T00:56:31.675Z,13.43
2023-01-21T00:59:00.127Z,13.40
2023-01-21T01:01:34.538Z,13.27
2023-01-21T01:04:03.006Z,12.87
2023-01-21T01:06:31.317Z,13.20
2023-01-21T01:08:59.741Z,13.27
2023-01-21T01:11:29.530Z,13.17
2023-01-21T01:13:59.405Z,13.33
2023-01-21T01:16:29.475Z,12.80
2023-01-21T01:18:57.841Z,12.93
2023-01-21T01:21:26.461Z,12.90
2023-01-21T01:23:55.783Z,12.80
2023-01-21T01:26:24.282Z,12.90
2023-01-21T01:28:52.572Z,13.40
2023-01-21T01:31:21.914Z,12.60
2023-01-21T01:33:51.597Z,13.57
2023-01-21T01:36:23.706Z,13.00
2023-01-21T01:38:53.155Z,12.67
2023-01-21T01:41:24.538Z,13.07
2023-01-21T01:43:58.105Z,13.10
2023-01-21T01:46:28.776Z,12.93
2023-01-21T01:49:07.564Z,13.23
2023-01-21T01:51:44.876Z,13.77
2023-01-21T01:54:16.707Z,13.23
2023-01-21T01:56:50.594Z,14.60
2023-01-21T01:59:19.832Z,13.37
2023-01-21T02:01:48.247Z,14.07
2023-01-21T02:04:24.422Z,14.20
2023-01-21T02:06:55.857Z,13.83
2023-01-21T02:09:29.658Z,14.17
2023-01-21T02:11:59.678Z,15.13
2023-01-21T02:14:28.409Z,14.97
2023-01-21T02:17:18.054Z,14.07
2023-01-21T02:20:29.226Z,14.30
2023-01-21T02:23:05.941Z,15.60
2023-01-21T02:26:23.924Z,14.60
2023-01-21T02:29:36.808Z,15.90
2023-01-21T02:33:13.595Z,15.20
2023-01-21T02:35:48.641Z,13.80
2023-01-21T02:38:25.100Z,13.90
2023-01-21T02:41:04.218Z,13.60
2023-01-21T02:43:42.413Z,14.93
2023-01-21T02:46:18.425Z,13.57
2023-01-21T02:48:57.616Z,13.93
2023-01-21T02:51:25.987Z,14.50
2023-01-21T02:53:54.348Z,15.83
2023-01-21T02:56:26.607Z,15.50
2023-01-21T02:59:00.886Z,16.27
2023-01-21T03:01:44.941Z,15.53
2023-01-21T03:04:48.021Z,15.40
2023-01-21T03:07:26.366Z,14.63
2023-01-21T03:10:03.264Z,15.10
2023-01-21T03:12:40.150Z,14.80
2023-01-21T03:15:30.174Z,14.40
2023-01-21T03:18:05.295Z,14.93
2023-01-21T03:20:39.866Z,14.77
2023-01-21T03:23:12.763Z,14.73
2023-01-21T03:25:42.730Z,13.93
2023-01-21T03:28:16.920Z,14.00
2023-01-21T03:30:50.606Z,15.10
2023-01-21T03:33:21.914Z,14.93
2023-01-21T03:35:56.104Z,14.43
2023-01-21T03:38:31.476Z,14.53
2023-01-21T03:41:09.022Z,14.53
2023-01-21T03:43:37.434Z,15.07
2023-01-21T03:46:11.815Z,14.10
2023-01-21T03:48:45.872Z,15.17
2023-01-21T03:51:21.022Z,13.47
2023-01-21T03:53:54.361Z,13.80
2023-01-21T03:56:22.786Z,14.37
2023-01-21T03:58:51.085Z,14.07
2023-01-21T04:01:19.516Z,14.47
2023-01-21T04:03:47.957Z,13.80
2023-01-21T04:06:20.385Z,14.50
2023-01-21T04:08:49.406Z,14.37
2023-01-21T04:11:17.972Z,14.50
2023-01-21T04:13:46.342Z,14.17
2023-01-21T04:16:14.900Z,13.80
2023-01-21T04:18:43.196Z,14.17
2023-01-21T04:21:11.553Z,14.17
2023-01-21T04:23:41.311Z,13.93
2023-01-21T04:26:09.905Z,13.30
2023-01-21T04:28:38.237Z,14.50
2023-01-21T04:31:06.619Z,15.00
2023-01-21T04:33:35.474Z,14.13
2023-01-21T04:36:03.825Z,14.30
2023-01-21T04:38:32.242Z,14.43
2023-01-21T04:41:01.914Z,14.47
2023-01-21T04:43:30.226Z,13.63
2023-01-21T04:45:58.604Z,13.80
2023-01-21T04:48:26.937Z,14.23
2023-01-21T04:50:55.266Z,13.83
2023-01-21T04:53:23.757Z,13.50
2023-01-21T04:55:52.698Z,14.67
2023-01-21T04:58:22.868Z,14.97
2023-01-21T05:00:51.241Z,14.27
2023-01-21T05:03:19.590Z,13.60
2023-01-21T05:05:47.931Z,14.63
2023-01-21T05:08:16.320Z,14.40
2023-01-21T05:10:44.637Z,14.30
2023-01-21T05:13:12.926Z,14.00
2023-01-21T05:15:42.859Z,14.37
2023-01-21T05:18:11.233Z,14.10
2023-01-21T05:20:39.535Z,13.90
2023-01-21T05:23:07.934Z,14.27
2023-01-21T05:25:36.207Z,14.00
2023-01-21T05:28:04.686Z,13.73
2023-01-21T05:30:33.116Z,13.27
2023-01-21T05:33:02.804Z,14.17
2023-01-21T05:35:31.108Z,14.80
2023-01-21T05:38:00.453Z,13.40
2023-01-21T05:40:28.872Z,14.53
2023-01-21T05:42:57.227Z,14.50
2023-01-21T05:45:25.718Z,13.93
2023-01-21T05:47:54.026Z,13.33
2023-01-21T05:50:23.649Z,13.20
2023-01-21T05:52:51.997Z,13.80
2023-01-21T05:55:20.272Z,13.70
2023-01-21T05:57:48.571Z,13.83
2023-01-21T06:00:18.494Z,13.83
2023-01-21T06:02:46.909Z,12.90
2023-01-21T06:05:15.351Z,13.37
2023-01-21T06:07:45.048Z,13.07
2023-01-21T06:10:13.445Z,13.27
2023-01-21T06:12:41.720Z,12.90
2023-01-21T06:15:11.364Z,12.80
2023-01-21T06:17:41.083Z,13.27
2023-01-21T06:20:11.485Z,12.70
2023-01-21T06:22:39.866Z,12.70
2023-01-21T06:25:11.025Z,12.40
2023-01-21T06:27:39.653Z,11.53
2023-01-21T06:30:11.742Z,12.17
2023-01-21T06:32:40.423Z,13.10
2023-01-21T06:35:09.790Z,12.87
2023-01-21T06:37:38.114Z,11.80
2023-01-21T06:40:10.296Z,12.80
2023-01-21T06:42:38.714Z,12.23
2023-01-21T06:45:09.110Z,12.60
2023-01-21T06:47:37.416Z,12.13
2023-01-21T06:50:06.914Z,12.63
2023-01-21T06:52:35.225Z,12.20
2023-01-21T06:55:03.510Z,12.80
2023-01-21T06:57:33.214Z,13.03
2023-01-21T07:00:01.606Z,12.90
2023-01-21T07:02:30.029Z,13.30
2023-01-21T07:04:59.265Z,12.40
2023-01-21T07:07:27.826Z,12.30
2023-01-21T07:09:56.150Z,12.10
2023-01-21T07:12:24.544Z,12.70
2023-01-21T07:14:54.377Z,12.73
2023-01-21T07:17:23.200Z,12.90
2023-01-21T07:19:51.623Z,12.90
2023-01-21T07:22:19.905Z,12.90
2023-01-21T07:24:48.432Z,12.13
2023-01-21T07:27:16.877Z,12.47
2023-01-21T07:29:45.183Z,12.30
2023-01-21T07:32:14.814Z,12.63
2023-01-21T07:34:43.214Z,12.33
2023-01-21T07:37:11.454Z,13.47
2023-01-21T07:39:39.756Z,12.60
2023-01-21T07:42:08.125Z,12.37
2023-01-21T07:44:36.409Z,12.97
2023-01-21T07:47:04.813Z,12.83
2023-01-21T07:49:34.540Z,12.83
2023-01-21T07:52:02.828Z,12.77
2023-01-21T07:54:31.270Z,12.60
2023-01-21T07:56:59.782Z,12.60
2023-01-21T07:59:28.103Z,12.10
2023-01-21T08:01:57.992Z,12.73
2023-01-21T08:04:26.693Z,12.27
2023-01-21T08:06:57.120Z,12.93
2023-01-21T08:09:25.938Z,13.07
2023-01-21T08:11:54.298Z,13.23
2023-01-21T08:14:22.626Z,12.30
2023-01-21T08:16:50.883Z,13.00
2023-01-21T08:19:19.233Z,13.40
2023-01-21T08:21:47.531Z,13.90
2023-01-21T08:24:17.164Z,13.13
2023-01-21T08:26:45.640Z,13.23
2023-01-21T08:29:14.109Z,13.63
2023-01-21T08:31:42.425Z,13.47
2023-01-21T08:34:10.825Z,12.97
2023-01-21T08:36:39.829Z,12.90
2023-01-21T08:39:08.140Z,13.10
2023-01-21T08:41:40.468Z,12.63
2023-01-21T08:44:09.257Z,12.90
2023-01-21T08:46:37.613Z,12.37
2023-01-21T08:49:06.810Z,12.67
2023-01-21T08:51:35.108Z,12.70
2023-01-21T08:54:04.552Z,11.90
2023-01-21T08:56:32.852Z,12.80
2023-01-21T08:59:02.826Z,13.10
2023-01-21T09:01:31.188Z,12.57
2023-01-21T09:04:01.432Z,12.50
2023-01-21T09:06:31.276Z,12.37
2023-01-21T09:08:59.682Z,13.63
2023-01-21T09:11:30.375Z,12.20
2023-01-21T09:14:03.354Z,12.57
2023-01-21T09:16:33.276Z,12.10
2023-01-21T09:19:02.190Z,12.67
2023-01-21T09:21:30.577Z,12.47
2023-01-21T09:23:58.934Z,12.33
2023-01-21T09:26:27.644Z,12.50
2023-01-21T09:28:58.325Z,12.57
2023-01-21T09:31:29.097Z,12.47
2023-01-21T09:34:01.172Z,12.03
2023-01-21T09:36:31.987Z,12.00
2023-01-21T09:39:00.878Z,13.23
2023-01-21T09:41:34.192Z,12.80
2023-01-21T09:44:16.692Z,12.00
2023-01-21T09:46:54.669Z,12.60
2023-01-21T09:49:29.854Z,12.37
2023-01-21T09:52:10.181Z,12.23
2023-01-21T09:54:40.187Z,12.40
2023-01-21T09:57:41.420Z,12.23
2023-01-21T10:00:30.997Z,12.83
2023-01-21T10:03:06.831Z,12.27
2023-01-21T10:06:01.202Z,12.00
2023-01-21T10:08:37.736Z,12.33
2023-01-21T10:11:25.069Z,12.37
2023-01-21T10:14:13.405Z,12.17
2023-01-21T10:16:47.713Z,12.67
2023-01-21T10:19:22.215Z,12.80
2023-01-21T10:22:00.785Z,12.10
2023-01-21T10:24:34.262Z,12.27
2023-01-21T10:27:02.623Z,12.27
2023-01-21T10:29:31.034Z,12.27
2023-01-21T10:32:04.231Z,12.23
2023-01-21T10:34:35.837Z,11.87
2023-01-21T10:37:16.585Z,13.30
2023-01-21T10:39:57.034Z,12.57
2023-01-21T10:42:51.363Z,12.30
2023-01-21T10:45:33.617Z,12.20
2023-01-21T10:48:12.179Z,11.23
2023-01-21T10:50:51.417Z,12.03
2023-01-21T10:53:27.914Z,12.07
2023-01-21T10:56:14.977Z,12.80
2023-01-21T10:58:50.410Z,12.30
2023-01-21T11:01:26.433Z,11.60
2023-01-21T11:03:58.454Z,12.33
2023-01-21T11:06:27.442Z,12.63
2023-01-21T11:09:02.919Z,11.83
2023-01-21T11:11:34.040Z,12.00
2023-01-21T11:14:02.940Z,12.57
2023-01-21T11:16:42.996Z,11.80
2023-01-21T11:19:15.650Z,12.10
2023-01-21T11:22:00.807Z,12.30
2023-01-21T11:24:32.147Z,12.20
2023-01-21T11:27:02.546Z,12.07
2023-01-21T11:29:41.896Z,12.30
2023-01-21T11:32:20.745Z,12.10
2023-01-21T11:34:51.386Z,11.80
2023-01-21T11:37:25.395Z,12.33
2023-01-21T11:39:59.357Z,12.30
2023-01-21T11:42:27.988Z,11.87
2023-01-21T11:45:01.383Z,12.83
2023-01-21T11:47:36.653Z,13.13
2023-01-21T11:50:14.189Z,12.43
2023-01-21T11:52:42.699Z,12.07
2023-01-21T11:55:24.945Z,12.43
2023-01-21T11:57:56.714Z,12.50
2023-01-21T12:00:28.164Z,13.13
2023-01-21T12:03:01.263Z,13.03
2023-01-21T12:05:34.114Z,12.73
2023-01-21T12:08:04.212Z,12.90
2023-01-21T12:10:37.262Z,12.30
2023-01-21T12:13:26.759Z,11.80
2023-01-21T12:16:30.444Z,12.50
2023-01-21T12:19:24.155Z,12.30
2023-01-21T12:22:10.025Z,12.00
2023-01-21T12:24:57.514Z,12.40
2023-01-21T12:27:34.363Z,12.03
2023-01-21T12:30:19.380Z,12.37
2023-01-21T12:32:53.320Z,12.97
2023-01-21T12:35:29.206Z,12.80
2023-01-21T12:38:05.598Z,12.73
2023-01-21T12:40:37.940Z,12.00
2023-01-21T12:43:17.325Z,12.30
2023-01-21T12:45:51.445Z,12.53
2023-01-21T12:48:27.850Z,12.43
2023-01-21T12:51:02.014Z,12.07
2023-01-21T12:53:37.573Z,12.33
2023-01-21T12:56:25.170Z,13.03
2023-01-21T12:58:59.314Z,12.03
2023-01-21T13:01:52.705Z,13.40
2023-01-21T13:04:43.752Z,12.10
2023-01-21T13:07:24.698Z,12.90
2023-01-21T13:09:59.759Z,12.80
2023-01-21T13:12:30.660Z,12.13
2023-01-21T13:15:07.613Z,13.70
2023-01-21T13:17:39.605Z,12.37
2023-01-21T13:20:17.239Z,13.03
2023-01-21T13:22:58.458Z,13.00
2023-01-21T13:25:40.738Z,13.23
2023-01-21T13:28:17.408Z,12.40
2023-01-21T13:30:55.041Z,11.90
2023-01-21T13:33:34.621Z,11.70
2023-01-21T13:36:18.793Z,13.17
2023-01-21T13:38:56.036Z,13.00
2023-01-21T13:41:45.281Z,13.20
2023-01-21T13:44:56.854Z,12.40
2023-01-21T13:47:56.285Z,13.17
2023-01-21T13:50:43.901Z,12.40
2023-01-21T13:53:40.046Z,12.50
2023-01-21T13:56:28.139Z,12.90
2023-01-21T13:59:01.579Z,13.13
2023-01-21T14:01:35.652Z,12.20
2023-01-21T14:04:13.359Z,12.67
2023-01-21T14:06:47.254Z,13.50
2023-01-21T14:09:24.326Z,12.87
2023-01-21T14:12:00.994Z,13.10
2023-01-21T14:14:58.137Z,13.30
2023-01-21T14:18:06.113Z,13.30
2023-01-21T14:20:59.124Z,13.37
2023-01-21T14:24:00.541Z,12.37
2023-01-21T14:26:46.555Z,12.83
2023-01-21T14:29:24.549Z,12.00
2023-01-21T14:31:59.307Z,12.83
2023-01-21T14:34:33.991Z,12.50
2023-01-21T14:37:12.523Z,12.70
2023-01-21T14:39:55.919Z,12.80
2023-01-21T14:42:43.152Z,11.87
2023-01-21T14:45:13.898Z,12.63
2023-01-21T14:47:46.648Z,12.50
2023-01-21T14:50:52.978Z,12.30
2023-01-21T14:53:26.589Z,12.97
2023-01-21T14:56:13.539Z,12.73
2023-01-21T14:58:47.355Z,13.17
2023-01-21T15:01:46.827Z,12.50
2023-01-21T15:04:27.742Z,13.00
2023-01-21T15:07:00.141Z,12.50
2023-01-21T15:09:33.981Z,12.37
2023-01-21T15:12:05.714Z,12.93
2023-01-21T15:14:37.133Z,12.83
2023-01-21T15:17:06.813Z,12.37
2023-01-21T15:19:36.443Z,12.57
2023-01-21T15:22:21.889Z,12.63
2023-01-21T15:25:34.349Z,12.50
2023-01-21T15:28:43.829Z,12.80
2023-01-21T15:31:35.308Z,12.17
2023-01-21T15:34:14.480Z,12.30
2023-01-21T15:36:48.724Z,11.67
2023-01-21T15:39:20.128Z,12.67
2023-01-21T15:42:05.149Z,11.57
2023-01-21T15:45:09.371Z,11.77
2023-01-21T15:48:02.353Z,11.90
2023-01-21T15:50:38.031Z,11.80
2023-01-21T15:53:29.578Z,12.07
2023-01-21T15:56:16.235Z,11.60
2023-01-21T15:59:00.672Z,12.53
2023-01-21T16:01:37.243Z,12.47
2023-01-21T16:04:31.892Z,12.33
2023-01-21T16:07:17.969Z,12.83
2023-01-21T16:10:02.147Z,12.30
2023-01-21T16:12:43.116Z,12.50
2023-01-21T16:15:20.790Z,12.70
2023-01-21T16:18:16.358Z,11.97
2023-01-21T16:20:48.095Z,11.80
2023-01-21T16:23:19.033Z,12.10
2023-01-21T16:25:49.711Z,11.50
2023-01-21T16:28:18.197Z,11.57
2023-01-21T16:30:57.391Z,11.60
2023-01-21T16:33:26.299Z,11.30
2023-01-21T16:35:57.134Z,11.20
2023-01-21T16:38:27.951Z,12.10
2023-01-21T16:41:25.225Z,11.57
2023-01-21T16:43:57.768Z,11.40
2023-01-21T16:46:34.446Z,11.20
2023-01-21T16:49:05.359Z,12.03
2023-01-21T16:51:36.215Z,11.47
2023-01-21T16:54:25.359Z,10.90
2023-01-21T16:57:00.031Z,11.60
2023-01-21T16:59:33.395Z,11.17
2023-01-21T17:02:03.225Z,11.90
2023-01-21T17:04:31.787Z,11.10
2023-01-21T17:07:00.465Z,11.87
2023-01-21T17:09:33.140Z,11.27
2023-01-21T17:12:06.196Z,11.50
2023-01-21T17:14:36.259Z,11.80
2023-01-21T17:17:08.915Z,11.63
2023-01-21T17:19:40.068Z,11.23
2023-01-21T17:22:16.350Z,11.57
2023-01-21T17:25:00.009Z,11.27
2023-01-21T17:27:29.370Z,10.70
2023-01-21T17:30:20.495Z,11.00
2023-01-21T17:32:57.092Z,11.63
2023-01-21T17:35:27.218Z,11.30
2023-01-21T17:37:58.906Z,11.20
2023-01-21T17:40:31.539Z,11.10
2023-01-21T17:43:10.739Z,11.20
2023-01-21T17:45:46.206Z,10.93
2023-01-21T17:48:28.118Z,11.73
2023-01-21T17:51:04.856Z,10.67
2023-01-21T17:53:34.373Z,11.13
2023-01-21T17:56:06.099Z,11.60
2023-01-21T17:58:53.584Z,11.20
2023-01-21T18:01:22.548Z,11.23
2023-01-21T18:03:52.332Z,10.80
2023-01-21T18:06:25.174Z,11.53
2023-01-21T18:08:54.274Z,10.83
2023-01-21T18:11:23.493Z,10.50
2023-01-21T18:13:52.644Z,10.70
2023-01-21T18:16:21.308Z,10.70
2023-01-21T18:18:54.030Z,10.57
2023-01-21T18:21:22.817Z,11.00
2023-01-21T18:23:51.506Z,10.47
2023-01-21T18:26:31.747Z,10.67
2023-01-21T18:29:00.773Z,11.37
2023-01-21T18:31:29.434Z,10.90
2023-01-21T18:33:59.174Z,10.63
2023-01-21T18:36:27.694Z,11.70
2023-01-21T18:38:56.457Z,11.10
2023-01-21T18:41:26.200Z,10.70
2023-01-21T18:43:54.654Z,10.60
2023-01-21T18:46:22.975Z,10.67
2023-01-21T18:48:51.346Z,10.67
2023-01-21T18:51:21.140Z,10.67
2023-01-21T18:53:49.538Z,10.50
2023-01-21T18:56:17.939Z,10.40
2023-01-21T18:58:46.366Z,10.63
2023-01-21T19:01:22.929Z,10.40
2023-01-21T19:03:59.353Z,10.37
2023-01-21T19:06:29.706Z,10.50
2023-01-21T19:08:58.167Z,10.67
2023-01-21T19:11:26.487Z,10.83
2023-01-21T19:13:54.833Z,11.37
2023-01-21T19:16:23.652Z,10.50
2023-01-21T19:18:53.086Z,10.30
2023-01-21T19:21:21.466Z,10.30
2023-01-21T19:23:51.276Z,10.50
2023-01-21T19:26:19.574Z,11.83
2023-01-21T19:28:48.135Z,10.93
2023-01-21T19:31:17.122Z,10.80
2023-01-21T19:33:47.266Z,10.33
2023-01-21T19:36:20.526Z,11.20
2023-01-21T19:38:55.727Z,11.50
2023-01-21T19:41:24.518Z,10.50
2023-01-21T19:43:52.970Z,10.47
2023-01-21T19:46:23.314Z,10.60
2023-01-21T19:48:53.703Z,9.90
2023-01-21T19:51:22.564Z,10.40
2023-01-21T19:53:52.314Z,10.07
2023-01-21T19:56:24.909Z,10.53
2023-01-21T19:58:53.360Z,10.40
2023-01-21T20:01:21.671Z,10.23
2023-01-21T20:03:59.857Z,10.50
2023-01-21T20:06:34.511Z,10.63
2023-01-21T20:09:04.506Z,10.10
2023-01-21T20:11:33.191Z,10.10
2023-01-21T20:14:01.589Z,10.50
2023-01-21T20:16:31.386Z,10.20
2023-01-21T20:19:02.465Z,10.97
2023-01-21T20:21:31.738Z,10.97
2023-01-21T20:24:01.592Z,10.40
2023-01-21T20:26:33.138Z,10.33
2023-01-21T20:29:03.692Z,10.57
2023-01-21T20:31:32.276Z,10.37
2023-01-21T20:34:00.990Z,10.50
2023-01-21T20:36:29.925Z,10.10
2023-01-21T20:38:59.286Z,10.27
2023-01-21T20:41:27.890Z,10.40
2023-01-21T20:43:58.221Z,10.40
2023-01-21T20:46:29.658Z,10.53
2023-01-21T20:48:59.280Z,10.57
2023-01-21T20:51:28.320Z,10.37
2023-01-21T20:53:57.607Z,10.20
2023-01-21T20:56:29.352Z,10.50
2023-01-21T20:59:00.329Z,10.20
2023-01-21T21:01:31.198Z,10.77
2023-01-21T21:03:59.564Z,10.30
2023-01-21T21:06:29.864Z,10.67
2023-01-21T21:08:58.598Z,10.20
2023-01-21T21:11:27.049Z,10.57
2023-01-21T21:13:56.108Z,10.90
2023-01-21T21:16:29.893Z,10.50
2023-01-21T21:18:59.537Z,10.53
2023-01-21T21:21:28.163Z,10.53
2023-01-21T21:23:56.917Z,10.80
2023-01-21T21:26:27.245Z,10.60
2023-01-21T21:28:57.452Z,10.67
2023-01-21T21:31:31.907Z,10.67
2023-01-21T21:34:00.419Z,10.27
2023-01-21T21:36:32.491Z,10.80
2023-01-21T21:39:01.142Z,10.30
2023-01-21T21:41:47.279Z,10.50
2023-01-21T21:44:15.714Z,10.37
2023-01-21T21:47:03.237Z,10.53
2023-01-21T21:49:31.724Z,10.97
2023-01-21T21:52:01.029Z,10.20
2023-01-21T21:54:29.578Z,10.70
2023-01-21T21:56:58.729Z,10.23
2023-01-21T21:59:27.449Z,10.97
2023-01-21T22:02:00.711Z,10.30
2023-01-21T22:04:29.602Z,10.87
2023-01-21T22:06:58.019Z,10.93
2023-01-21T22:09:26.407Z,10.30
2023-01-21T22:11:54.859Z,10.87
2023-01-21T22:14:23.143Z,11.10
2023-01-21T22:16:52.069Z,10.30
2023-01-21T22:19:21.903Z,10.93
2023-01-21T22:21:50.174Z,10.40
2023-01-21T22:24:19.190Z,10.23
2023-01-21T22:26:47.656Z,10.43
2023-01-21T22:29:16.130Z,10.23
2023-01-21T22:31:44.704Z,10.67
2023-01-21T22:34:13.779Z,11.37
2023-01-21T22:36:47.107Z,10.00
2023-01-21T22:39:15.969Z,10.40
2023-01-21T22:41:44.383Z,11.33
2023-01-21T22:44:13.089Z,10.77
2023-01-21T22:46:41.471Z,10.77
2023-01-21T22:49:11.697Z,10.40
2023-01-21T22:51:39.987Z,10.83
2023-01-21T22:54:09.693Z,10.83
2023-01-21T22:56:51.471Z,10.43
2023-01-21T22:59:21.368Z,10.87
2023-01-21T23:01:51.385Z,10.20
2023-01-21T23:04:19.794Z,10.40
2023-01-21T23:06:48.860Z,10.90
2023-01-21T23:09:18.611Z,10.60
2023-01-21T23:11:46.991Z,10.17
2023-01-21T23:14:15.558Z,10.33
2023-01-21T23:16:43.909Z,10.97
2023-01-21T23:19:12.948Z,10.73
2023-01-21T23:21:41.908Z,11.60
2023-01-21T23:24:10.578Z,10.80
2023-01-21T23:26:40.548Z,10.80
2023-01-21T23:29:09.207Z,11.63
2023-01-21T23:31:37.565Z,10.53
2023-01-21T23:34:05.936Z,10.30
2023-01-21T23:36:34.303Z,10.10
2023-01-21T23:39:02.675Z,11.37
2023-01-21T23:41:31.104Z,10.50
2023-01-21T23:44:02.583Z,11.27
2023-01-21T23:46:31.371Z,10.63
2023-01-21T23:48:59.906Z,10.60
2023-01-21T23:51:28.291Z,10.10
2023-01-21T23:53:57.868Z,10.67
2023-01-21T23:56:27.240Z,10.50
2023-01-21T23:58:55.977Z,10.87
